Time;durP1;ratioP1;P1;durP2;ratioP2;P2;SDS_P1;SDS_P2;PMS_P1;PMS_P2;Temp;Humidity;BMP_temperature;BMP_pressure;BME280_temperature;BME280_humidity;BME280_pressure;Samples;Min_cycle;Max_cycle;Signal;HPM_P1;HPM_P2
2023/07/07 00:00:04;;;;;;;3.70;2.63;;;;;;;17.98;65.44;99701.38;339340;28;5281;-68
2023/07/07 00:00:16;;;;;;;3.45;2.50;;;;;;;17.99;65.45;99708.31;335409;28;17617;-67
2023/07/07 00:00:28;;;;;;;4.50;2.70;;;;;;;18.00;65.06;99710.00;334037;28;4666;-68
2023/07/07 00:00:40;;;;;;;4.50;2.55;;;;;;;17.98;65.73;99706.63;336502;28;11195;-68
2023/07/07 00:00:52;;;;;;;3.67;2.30;;;;;;;17.95;66.21;99705.88;337960;28;4674;-68
2023/07/07 00:01:09;;;;;;;3.38;2.30;;;;;;;17.98;65.97;99714.53;335564;28;11563;-68
2023/07/07 00:01:22;;;;;;;3.95;2.53;;;;;;;18.01;65.47;99701.16;334410;28;17749;-69
2023/07/07 00:01:34;;;;;;;4.35;2.50;;;;;;;18.00;65.78;99710.00;336817;28;5285;-69
2023/07/07 00:01:46;;;;;;;5.03;2.67;;;;;;;17.99;65.78;99708.31;334673;28;18113;-68
2023/07/07 00:01:58;;;;;;;5.53;2.78;;;;;;;17.95;65.96;99712.94;333104;28;5248;-68
2023/07/07 00:02:10;;;;;;;3.95;2.60;;;;;;;17.92;66.24;99707.84;336860;28;4777;-68
2023/07/07 00:02:23;;;;;;;4.45;2.47;;;;;;;17.93;65.88;99704.28;334620;28;18174;-68
2023/07/07 00:02:35;;;;;;;5.15;2.50;;;;;;;17.92;65.83;99713.94;336015;28;5497;-68
2023/07/07 00:02:47;;;;;;;4.10;2.50;;;;;;;17.89;66.32;99708.91;335720;28;19006;-68
2023/07/07 00:03:00;;;;;;;4.38;2.50;;;;;;;17.91;66.01;99711.44;337640;28;5476;-67
2023/07/07 00:03:12;;;;;;;4.85;2.63;;;;;;;17.92;65.93;99708.69;333404;28;18094;-68
2023/07/07 00:03:24;;;;;;;4.60;2.70;;;;;;;17.95;65.65;99711.13;337133;28;5314;-67
2023/07/07 00:03:36;;;;;;;4.55;2.70;;;;;;;17.94;66.06;99717.31;334998;28;11785;-68
2023/07/07 00:03:48;;;;;;;4.38;2.70;;;;;;;17.93;66.17;99709.56;336526;28;4862;-68
2023/07/07 00:04:01;;;;;;;4.65;2.65;;;;;;;17.93;65.97;99710.41;333852;28;11620;-68
2023/07/07 00:04:13;;;;;;;4.57;2.78;;;;;;;17.95;65.64;99712.94;336661;28;5052;-68
2023/07/07 00:04:25;;;;;;;4.93;2.78;;;;;;;17.95;65.65;99713.78;337601;28;11943;-68
2023/07/07 00:04:38;;;;;;;4.50;2.50;;;;;;;17.95;65.55;99713.78;334165;28;18303;-68
2023/07/07 00:04:50;;;;;;;4.40;2.60;;;;;;;17.94;65.65;99712.06;337143;28;4616;-68
2023/07/07 00:05:02;;;;;;;4.25;2.70;;;;;;;17.96;65.23;99715.44;335177;28;6655;-68
2023/07/07 00:05:14;;;;;;;3.67;2.55;;;;;;;17.95;65.39;99708.50;336815;28;4524;-68
2023/07/07 00:05:27;;;;;;;3.15;2.38;;;;;;;17.96;65.59;99712.81;334357;28;5606;-68
2023/07/07 00:05:42;;;;;;;3.63;2.30;;;;;;;17.96;65.07;99707.56;337552;28;4618;-68
2023/07/07 00:05:54;;;;;;;3.90;2.42;;;;;;;18.00;65.31;99707.38;334639;28;17875;-68
2023/07/07 00:06:07;;;;;;;3.40;2.35;;;;;;;18.00;65.12;99704.75;335022;28;4637;-68
2023/07/07 00:06:21;;;;;;;4.10;2.33;;;;;;;18.01;65.67;99711.69;332109;28;4569;-69
2023/07/07 00:06:33;;;;;;;4.88;2.45;;;;;;;18.01;65.39;99706.41;333236;28;18126;-68
2023/07/07 00:06:46;;;;;;;5.30;2.58;;;;;;;18.02;65.58;99708.13;336818;28;5485;-68
2023/07/07 00:06:58;;;;;;;4.38;2.60;;;;;;;18.00;65.48;99712.63;334631;28;19523;-68
2023/07/07 00:07:10;;;;;;;4.47;2.65;;;;;;;17.99;65.46;99705.69;336489;28;4608;-67
2023/07/07 00:07:23;;;;;;;4.13;2.67;;;;;;;17.99;65.72;99710.94;334828;28;17869;-68
2023/07/07 00:07:34;;;;;;;3.03;2.72;;;;;;;18.00;65.66;99710.00;338428;28;4766;-68
2023/07/07 00:07:48;;;;;;;3.53;2.63;;;;;;;17.99;65.51;99709.19;337735;28;4764;-70
2023/07/07 00:08:01;;;;;;;4.30;2.53;;;;;;;17.98;65.46;99709.25;336338;28;17878;-68
2023/07/07 00:08:13;;;;;;;4.38;2.58;;;;;;;17.96;65.13;99710.19;338657;28;17211;-68
2023/07/07 00:08:26;;;;;;;4.35;2.70;;;;;;;17.95;65.86;99708.50;340813;28;4771;-67
2023/07/07 00:08:38;;;;;;;4.45;2.65;;;;;;;17.94;65.39;99712.06;337060;28;11980;-68
2023/07/07 00:08:50;;;;;;;3.92;2.55;;;;;;;17.94;65.65;99712.06;339580;28;4541;-67
2023/07/07 00:09:03;;;;;;;3.45;2.55;;;;;;;17.93;65.60;99705.13;337336;28;5062;-68
2023/07/07 00:09:16;;;;;;;3.72;2.55;;;;;;;17.94;65.61;99712.06;338097;28;4572;-68
2023/07/07 00:09:28;;;;;;;4.43;2.50;;;;;;;17.92;64.93;99708.69;338527;28;4526;-68
2023/07/07 00:09:40;;;;;;;4.90;2.50;;;;;;;17.92;65.04;99713.94;335520;28;18099;-67
2023/07/07 00:09:52;;;;;;;5.03;2.85;;;;;;;17.92;65.19;99713.94;338463;28;4504;-68
2023/07/07 00:10:05;;;;;;;5.85;2.78;;;;;;;17.92;65.45;99708.69;334777;28;18230;-68
2023/07/07 00:10:17;;;;;;;5.53;2.65;;;;;;;17.89;65.05;99706.25;337053;28;4827;-67
2023/07/07 00:10:29;;;;;;;5.47;2.55;;;;;;;17.88;65.35;99706.34;334005;28;18849;-69
2023/07/07 00:10:42;;;;;;;4.35;2.40;;;;;;;17.85;65.73;99707.41;337094;28;4740;-67
2023/07/07 00:10:58;;;;;;;4.40;2.47;;;;;;;17.86;65.39;99714.34;334818;28;11596;-67
2023/07/07 00:11:10;;;;;;;4.70;2.45;;;;;;;17.89;65.24;99708.91;334993;28;18542;-68
2023/07/07 00:11:22;;;;;;;4.40;2.30;;;;;;;17.91;65.17;99714.91;338123;28;4692;-68
2023/07/07 00:11:35;;;;;;;4.30;2.40;;;;;;;17.89;65.08;99708.91;336769;28;5240;-68
2023/07/07 00:11:47;;;;;;;5.13;2.55;;;;;;;17.88;65.64;99707.19;338970;28;5176;-68
2023/07/07 00:12:00;;;;;;;4.57;2.70;;;;;;;17.89;65.61;99714.16;336133;28;16244;-68
2023/07/07 00:12:13;;;;;;;4.32;2.58;;;;;;;17.90;65.20;99707.94;337754;28;5062;-68
2023/07/07 00:12:25;;;;;;;3.35;2.42;;;;;;;17.89;65.07;99711.53;330490;28;18475;-67
2023/07/07 00:12:38;;;;;;;2.97;2.38;;;;;;;17.89;64.92;99713.31;337609;28;4624;-68
2023/07/07 00:12:51;;;;;;;3.70;2.50;;;;;;;17.87;64.75;99710.78;334837;28;16477;-68
2023/07/07 00:13:03;;;;;;;4.13;2.60;;;;;;;17.87;65.18;99702.88;337253;28;5240;-67
2023/07/07 00:13:16;;;;;;;3.55;2.70;;;;;;;17.88;65.30;99707.19;334619;28;18822;-68
2023/07/07 00:13:28;;;;;;;3.17;2.53;;;;;;;17.87;65.67;99705.53;337692;28;4788;-67
2023/07/07 00:13:40;;;;;;;4.00;2.72;;;;;;;17.84;66.03;99710.94;336341;28;16105;-68
2023/07/07 00:13:54;;;;;;;4.78;2.70;;;;;;;17.83;66.28;99706.66;333531;28;18184;-69
2023/07/07 00:14:08;;;;;;;3.83;2.60;;;;;;;17.82;66.48;99707.53;333341;28;14142;-68
2023/07/07 00:14:20;;;;;;;3.17;2.50;;;;;;;17.83;66.06;99713.63;336533;28;4869;-68
2023/07/07 00:14:32;;;;;;;3.22;2.58;;;;;;;17.83;65.77;99704.03;336702;28;17312;-67
2023/07/07 00:14:44;;;;;;;3.55;2.60;;;;;;;17.85;65.42;99704.78;338383;28;7086;-68
2023/07/07 00:14:57;;;;;;;3.72;2.60;;;;;;;17.85;65.59;99707.41;334489;28;5241;-67
2023/07/07 00:15:13;;;;;;;3.80;2.60;;;;;;;17.86;65.55;99709.06;331496;28;17796;-67
2023/07/07 00:15:25;;;;;;;3.53;2.53;;;;;;;17.83;66.19;99704.03;335579;28;4784;-68
2023/07/07 00:15:43;;;;;;;3.58;2.47;;;;;;;17.86;66.00;99709.06;330397;28;19160;-67
2023/07/07 00:16:00;;;;;;;3.30;2.47;;;;;;;17.86;65.32;99706.44;334532;28;17681;-67
2023/07/07 00:16:13;;;;;;;3.30;2.58;;;;;;;17.88;65.11;99711.63;335809;28;17735;-68
2023/07/07 00:16:27;;;;;;;4.70;2.70;;;;;;;17.88;65.26;99706.34;336909;28;4542;-68
2023/07/07 00:16:40;;;;;;;4.70;2.70;;;;;;;17.89;65.13;99708.91;333071;28;18824;-68
2023/07/07 00:16:52;;;;;;;3.15;2.60;;;;;;;17.91;65.07;99706.19;337067;28;18190;-68
2023/07/07 00:17:05;;;;;;;3.25;2.63;;;;;;;17.88;64.90;99707.19;334898;28;18389;-68
2023/07/07 00:17:17;;;;;;;5.05;2.65;;;;;;;17.90;64.95;99709.72;332145;28;4554;-68
2023/07/07 00:17:29;;;;;;;5.82;2.80;;;;;;;17.91;64.65;99707.00;334127;28;18137;-68
2023/07/07 00:17:41;;;;;;;5.32;2.72;;;;;;;17.92;64.54;99703.44;337799;28;5386;-68
2023/07/07 00:17:53;;;;;;;4.68;2.78;;;;;;;17.91;64.49;99707.00;334403;28;18215;-68
2023/07/07 00:18:06;;;;;;;4.10;2.72;;;;;;;17.90;64.53;99715.81;337874;28;4672;-67
2023/07/07 00:18:27;;;;;;;3.40;2.60;;;;;;;17.91;64.67;99707.00;334326;28;12714;-68
2023/07/07 00:18:40;;;;;;;3.80;2.60;;;;;;;17.92;64.96;99703.44;334768;28;17781;-67
2023/07/07 00:18:52;;;;;;;3.80;2.63;;;;;;;17.94;64.52;99712.06;337049;28;4749;-68
2023/07/07 00:19:10;;;;;;;3.92;2.45;;;;;;;17.94;64.54;99711.22;334373;28;19108;-68
2023/07/07 00:19:22;;;;;;;3.22;2.30;;;;;;;17.95;64.14;99707.69;333866;28;17703;-68
2023/07/07 00:19:34;;;;;;;2.78;2.38;;;;;;;17.93;63.72;99710.41;333792;28;10008;-68
2023/07/07 00:19:47;;;;;;;3.10;2.40;;;;;;;17.92;63.76;99708.69;337673;28;5070;-68
2023/07/07 00:20:04;;;;;;;3.60;2.60;;;;;;;17.91;64.31;99703.53;334734;28;10788;-67
2023/07/07 00:20:17;;;;;;;3.08;2.50;;;;;;;17.87;64.55;99710.78;334494;28;17808;-68
2023/07/07 00:20:31;;;;;;;3.30;2.60;;;;;;;17.84;64.47;99708.31;333386;28;18860;-68
2023/07/07 00:20:43;;;;;;;3.80;2.72;;;;;;;17.85;64.42;99706.53;336795;28;11506;-67
2023/07/07 00:20:58;;;;;;;3.45;2.65;;;;;;;17.81;64.75;99711.13;335110;28;17450;-68
2023/07/07 00:21:11;;;;;;;3.50;2.70;;;;;;;17.81;64.67;99705.88;334754;28;18020;-67
2023/07/07 00:21:25;;;;;;;3.85;2.63;;;;;;;17.82;65.09;99712.81;336474;28;12338;-67
2023/07/07 00:21:37;;;;;;;3.95;2.78;;;;;;;17.82;64.88;99710.16;334568;28;18021;-68
2023/07/07 00:21:58;;;;;;;3.33;2.70;;;;;;;17.80;64.67;99704.16;335251;28;5259;-68
2023/07/07 00:22:10;;;;;;;3.47;2.70;;;;;;;17.77;65.00;99712.25;334669;28;17183;-68
2023/07/07 00:22:22;;;;;;;4.47;2.75;;;;;;;17.77;65.01;99713.09;336750;28;4710;-67
2023/07/07 00:22:35;;;;;;;4.43;2.55;;;;;;;17.74;65.66;99713.25;336271;28;12710;-67
2023/07/07 00:22:47;;;;;;;4.45;2.53;;;;;;;17.76;65.29;99710.56;334010;28;18964;-67
2023/07/07 00:22:59;;;;;;;4.40;2.53;;;;;;;17.76;65.08;99703.50;337559;28;4591;-67
2023/07/07 00:23:12;;;;;;;5.60;2.47;;;;;;;17.76;65.35;99702.66;334327;28;16636;-67
2023/07/07 00:23:25;;;;;;;5.53;2.38;;;;;;;17.74;65.11;99707.16;330517;28;4815;-67
2023/07/07 00:23:38;;;;;;;3.90;2.35;;;;;;;17.74;65.04;99709.78;337596;28;4615;-67
2023/07/07 00:23:53;;;;;;;3.78;2.50;;;;;;;17.74;64.90;99712.44;333465;28;17996;-69
2023/07/07 00:24:05;;;;;;;3.90;2.60;;;;;;;17.74;64.49;99704.53;333067;28;16231;-69
2023/07/07 00:24:18;;;;;;;4.95;2.60;;;;;;;17.73;64.76;99710.75;339003;28;4567;-68
2023/07/07 00:24:30;;;;;;;4.22;2.50;;;;;;;17.73;64.64;99702.88;339137;28;4648;-68
2023/07/07 00:24:42;;;;;;;3.13;2.50;;;;;;;17.74;64.22;99705.38;332204;28;17894;-68
2023/07/07 00:24:54;;;;;;;2.83;2.50;;;;;;;17.76;64.24;99702.66;339763;28;5525;-68
2023/07/07 00:25:07;;;;;;;3.30;2.50;;;;;;;17.75;64.54;99708.88;336034;28;11598;-68
2023/07/07 00:25:19;;;;;;;3.33;2.53;;;;;;;17.75;64.36;99709.72;339186;28;5616;-68
2023/07/07 00:25:31;;;;;;;3.28;2.60;;;;;;;17.74;64.79;99715.06;336266;28;19280;-68
2023/07/07 00:25:43;;;;;;;2.95;2.53;;;;;;;17.72;64.47;99701.16;339838;28;5300;-67
2023/07/07 00:26:03;;;;;;;2.90;2.60;;;;;;;17.74;64.17;99710.63;339628;28;9739;-68
2023/07/07 00:26:15;;;;;;;3.22;2.55;;;;;;;17.75;64.30;99711.50;331356;28;17391;-69
2023/07/07 00:26:27;;;;;;;4.57;2.60;;;;;;;17.76;64.20;99707.91;336992;28;12366;-68
2023/07/07 00:26:39;;;;;;;4.82;2.67;;;;;;;17.77;64.03;99714.88;338482;28;5336;-68
2023/07/07 00:26:51;;;;;;;4.65;2.67;;;;;;;17.78;63.99;99708.66;336637;28;4738;-68
2023/07/07 00:27:04;;;;;;;4.10;2.75;;;;;;;17.75;64.01;99707.09;341260;28;5294;-68
2023/07/07 00:27:16;;;;;;;3.85;2.75;;;;;;;17.72;64.74;99712.50;340314;28;4521;-67
2023/07/07 00:27:28;;;;;;;3.58;2.75;;;;;;;17.74;64.57;99715.06;337288;28;18049;-68
2023/07/07 00:27:40;;;;;;;3.88;2.42;;;;;;;17.75;64.56;99706.25;340899;28;5434;-68
2023/07/07 00:27:52;;;;;;;3.88;2.33;;;;;;;17.75;64.39;99712.34;334755;28;4697;-67
2023/07/07 00:28:04;;;;;;;3.47;2.40;;;;;;;17.75;64.42;99708.88;337126;28;18049;-68
2023/07/07 00:28:16;;;;;;;3.33;2.47;;;;;;;17.76;64.55;99710.56;340031;28;4573;-68
2023/07/07 00:28:28;;;;;;;3.50;2.53;;;;;;;17.73;64.60;99718.63;338517;28;17361;-68
2023/07/07 00:28:40;;;;;;;3.92;2.60;;;;;;;17.73;64.59;99708.13;340960;28;4676;-68
2023/07/07 00:28:52;;;;;;;5.18;2.70;;;;;;;17.73;64.49;99705.50;338666;28;6276;-67
2023/07/07 00:29:05;;;;;;;8.15;2.78;;;;;;;17.71;64.65;99699.50;340485;28;5059;-68
2023/07/07 00:29:17;;;;;;;7.68;2.70;;;;;;;17.72;64.73;99711.69;339344;28;4678;-67
2023/07/07 00:29:30;;;;;;;6.43;2.67;;;;;;;17.72;64.87;99716.94;334689;28;19304;-68
2023/07/07 00:29:42;;;;;;;4.30;2.50;;;;;;;17.73;64.69;99705.50;336374;28;5216;-68
2023/07/07 00:29:54;;;;;;;3.95;2.50;;;;;;;17.73;64.57;99708.13;335062;28;17981;-68
2023/07/07 00:30:07;;;;;;;4.32;2.60;;;;;;;17.72;64.70;99707.25;338385;28;4627;-68
2023/07/07 00:30:19;;;;;;;3.92;2.60;;;;;;;17.71;64.92;99705.59;335769;28;17889;-67
2023/07/07 00:30:31;;;;;;;3.80;2.70;;;;;;;17.69;65.28;99715.34;336508;28;5151;-67
2023/07/07 00:30:43;;;;;;;4.43;2.60;;;;;;;17.68;64.99;99707.53;334859;28;11429;-68
2023/07/07 00:30:55;;;;;;;4.63;2.67;;;;;;;17.66;64.48;99706.78;334250;28;8402;-67
2023/07/07 00:31:08;;;;;;;4.15;2.70;;;;;;;17.65;64.60;99700.69;336468;28;4650;-68
2023/07/07 00:31:23;;;;;;;3.22;2.70;;;;;;;17.65;64.67;99705.13;333993;28;18305;-68
2023/07/07 00:31:35;;;;;;;3.58;2.70;;;;;;;17.64;64.78;99703.41;334589;28;17838;-68
2023/07/07 00:31:47;;;;;;;4.10;2.72;;;;;;;17.66;64.76;99709.44;336658;28;4642;-68
2023/07/07 00:31:59;;;;;;;3.80;2.63;;;;;;;17.67;65.09;99711.13;334672;28;16468;-68
2023/07/07 00:32:11;;;;;;;3.92;2.60;;;;;;;17.68;64.91;99704.91;336311;28;4541;-67
2023/07/07 00:32:23;;;;;;;3.90;2.60;;;;;;;17.70;64.66;99703.88;337176;28;5419;-67
2023/07/07 00:32:36;;;;;;;4.10;2.70;;;;;;;17.70;64.72;99708.28;334267;28;18304;-68
2023/07/07 00:32:48;;;;;;;4.70;2.70;;;;;;;17.69;64.71;99709.25;337639;28;5445;-67
2023/07/07 00:33:00;;;;;;;4.57;2.58;;;;;;;17.68;64.67;99713.63;333851;28;18145;-68
2023/07/07 00:33:12;;;;;;;4.00;2.70;;;;;;;17.68;64.35;99705.75;338993;28;5231;-68
2023/07/07 00:33:25;;;;;;;3.88;2.72;;;;;;;17.67;64.40;99703.25;339526;28;18140;-68
2023/07/07 00:33:37;;;;;;;3.80;2.60;;;;;;;17.64;64.62;99709.50;336853;28;18273;-67
2023/07/07 00:33:49;;;;;;;3.33;2.55;;;;;;;17.64;64.64;99698.16;334088;28;5437;-68
2023/07/07 00:34:01;;;;;;;3.97;2.50;;;;;;;17.60;65.68;99710.63;335929;28;18794;-68
2023/07/07 00:34:13;;;;;;;4.18;2.50;;;;;;;17.58;65.16;99708.09;339528;28;4721;-67
2023/07/07 00:34:26;;;;;;;4.78;2.63;;;;;;;17.60;65.31;99701.91;334869;28;11104;-68
2023/07/07 00:34:38;;;;;;;3.45;2.50;;;;;;;17.57;65.13;99703.78;337824;28;5070;-68
2023/07/07 00:34:50;;;;;;;3.83;2.60;;;;;;;17.56;64.60;99704.72;334589;28;18085;-67
2023/07/07 00:35:03;;;;;;;4.20;2.63;;;;;;;17.54;64.78;99709.22;337289;28;4529;-68
2023/07/07 00:35:15;;;;;;;4.35;2.67;;;;;;;17.54;65.11;99706.59;335412;28;10912;-68
2023/07/07 00:35:27;;;;;;;4.03;2.67;;;;;;;17.55;64.99;99705.66;338695;28;4586;-68
2023/07/07 00:35:46;;;;;;;4.80;2.60;;;;;;;17.53;65.00;99707.53;335242;28;5448;-68
2023/07/07 00:35:58;;;;;;;3.80;2.47;;;;;;;17.54;65.28;99705.75;335841;28;17791;-67
2023/07/07 00:36:10;;;;;;;3.05;2.40;;;;;;;17.53;65.42;99704.91;335398;28;18503;-68
2023/07/07 00:36:23;;;;;;;3.55;2.50;;;;;;;17.52;65.65;99711.09;337992;28;4668;-68
2023/07/07 00:36:35;;;;;;;3.83;2.67;;;;;;;17.50;65.71;99702.47;340142;28;4670;-67
2023/07/07 00:36:47;;;;;;;3.80;2.65;;;;;;;17.53;65.55;99706.72;336895;28;17529;-68
2023/07/07 00:36:59;;;;;;;4.07;2.63;;;;;;;17.53;65.33;99707.53;340101;28;4660;-67
2023/07/07 00:37:11;;;;;;;3.50;2.33;;;;;;;17.54;65.26;99709.22;336842;28;11825;-68
2023/07/07 00:37:23;;;;;;;4.15;2.42;;;;;;;17.55;65.15;99700.41;338021;28;4592;-67
2023/07/07 00:37:35;;;;;;;3.83;2.50;;;;;;;17.54;65.01;99703.97;338655;28;4643;-68
2023/07/07 00:37:47;;;;;;;3.63;2.70;;;;;;;17.53;64.92;99704.91;336180;28;17854;-68
2023/07/07 00:37:59;;;;;;;4.53;2.83;;;;;;;17.55;64.63;99705.66;332991;28;5016;-68
2023/07/07 00:38:11;;;;;;;4.55;2.67;;;;;;;17.54;65.09;99706.59;334647;28;19248;-67
2023/07/07 00:38:24;;;;;;;3.63;2.50;;;;;;;17.54;65.03;99706.59;334435;28;5433;-68
2023/07/07 00:38:36;;;;;;;3.47;2.45;;;;;;;17.55;65.03;99705.66;333249;28;11846;-67
2023/07/07 00:38:48;;;;;;;3.42;2.65;;;;;;;17.53;65.10;99704.91;337291;28;5541;-67
2023/07/07 00:39:00;;;;;;;3.67;2.85;;;;;;;17.53;64.81;99706.72;336823;28;5603;-67
2023/07/07 00:39:12;;;;;;;4.28;3.03;;;;;;;17.52;65.12;99700.59;335245;28;19065;-68
2023/07/07 00:39:24;;;;;;;4.28;3.10;;;;;;;17.53;65.01;99704.06;336263;28;5478;-68
2023/07/07 00:39:36;;;;;;;3.85;2.92;;;;;;;17.52;64.78;99700.59;332106;28;5501;-68
2023/07/07 00:39:48;;;;;;;3.40;2.63;;;;;;;17.54;64.69;99703.13;334439;28;18328;-68
2023/07/07 00:40:01;;;;;;;3.08;2.40;;;;;;;17.53;65.14;99710.19;336944;28;4553;-68
2023/07/07 00:40:13;;;;;;;3.25;2.42;;;;;;;17.54;65.13;99703.97;329652;28;19249;-67
2023/07/07 00:40:25;;;;;;;3.30;2.50;;;;;;;17.55;65.10;99702.19;337445;28;4677;-67
2023/07/07 00:40:37;;;;;;;3.47;2.40;;;;;;;17.55;65.07;99704.84;335261;28;18449;-67
2023/07/07 00:40:52;;;;;;;3.58;2.33;;;;;;;17.53;65.30;99707.53;335817;28;5080;-67
2023/07/07 00:41:05;;;;;;;3.75;2.40;;;;;;;17.54;65.04;99706.59;332287;28;18794;-68
2023/07/07 00:41:17;;;;;;;4.65;2.67;;;;;;;17.54;64.66;99703.97;330208;28;4654;-69
2023/07/07 00:41:29;;;;;;;5.68;2.85;;;;;;;17.54;64.54;99703.13;336599;28;5314;-68
2023/07/07 00:41:42;;;;;;;5.00;2.70;;;;;;;17.53;64.30;99702.28;336314;28;4529;-67
2023/07/07 00:41:54;;;;;;;4.70;2.63;;;;;;;17.53;64.44;99701.44;334642;28;18189;-68
2023/07/07 00:42:08;;;;;;;4.35;2.50;;;;;;;17.53;64.31;99706.72;337424;28;5093;-68
2023/07/07 00:42:20;;;;;;;7.18;2.60;;;;;;;17.52;64.61;99703.22;333853;28;17838;-68
2023/07/07 00:42:32;;;;;;;6.68;2.72;;;;;;;17.51;64.43;99706.78;336619;28;8507;-67
2023/07/07 00:42:44;;;;;;;5.00;2.80;;;;;;;17.53;64.30;99706.72;335119;28;17385;-67
2023/07/07 00:42:56;;;;;;;4.43;2.72;;;;;;;17.52;64.89;99702.38;337734;28;4502;-67
2023/07/07 00:43:17;;;;;;;4.25;2.53;;;;;;;17.53;65.05;99707.53;334423;28;18042;-67
2023/07/07 00:43:29;;;;;;;3.27;2.47;;;;;;;17.54;65.01;99703.97;334566;28;17072;-68
2023/07/07 00:44:14;;;;;;;3.53;2.58;;;;;;;17.51;65.40;99704.16;335256;28;4609;-60
2023/07/07 00:45:01;;;;;;;3.78;2.60;;;;;;;17.50;65.32;99712.97;337947;28;4868;-60
2023/07/07 00:45:21;;;;;;;3.65;2.55;;;;;;;17.49;65.18;99706.03;339308;28;18371;-60
2023/07/07 00:45:33;;;;;;;3.40;2.65;;;;;;;17.51;64.97;99704.16;336464;28;17870;-60
2023/07/07 00:45:45;;;;;;;3.55;2.70;;;;;;;17.51;64.99;99709.41;337372;28;18463;-61
2023/07/07 00:45:58;;;;;;;3.78;2.67;;;;;;;17.53;65.46;99707.53;338779;28;5393;-60
2023/07/07 00:46:10;;;;;;;3.83;2.70;;;;;;;17.53;65.28;99707.53;336100;28;18037;-60
2023/07/07 00:46:22;;;;;;;3.20;2.33;;;;;;;17.54;65.30;99709.22;340526;28;5509;-60
2023/07/07 00:46:36;;;;;;;3.03;2.30;;;;;;;17.53;65.29;99707.53;338264;28;10905;-61
2023/07/07 00:46:49;;;;;;;2.95;2.40;;;;;;;17.53;65.41;99707.53;341160;28;5291;-61
2023/07/07 00:47:01;;;;;;;3.15;2.63;;;;;;;17.52;65.62;99711.09;338778;28;18427;-61
2023/07/07 00:47:13;;;;;;;3.28;2.70;;;;;;;17.53;65.56;99706.72;339952;28;5282;-60
2023/07/07 00:47:25;;;;;;;3.47;2.67;;;;;;;17.51;65.72;99704.16;334474;28;11938;-60
2023/07/07 00:47:42;;;;;;;3.95;2.65;;;;;;;17.47;65.77;99713.19;337198;28;17827;-60
2023/07/07 00:47:59;;;;;;;4.40;2.85;;;;;;;17.48;65.72;99712.22;335401;28;17816;-60
2023/07/07 00:48:21;;;;;;;4.25;2.60;;;;;;;17.46;65.45;99715.88;336270;28;17626;-60
2023/07/07 00:48:40;;;;;;;4.78;2.80;;;;;;;17.46;65.78;99716.72;334950;28;17330;-60
2023/07/07 00:48:52;;;;;;;3.50;2.88;;;;;;;17.46;65.59;99710.63;334546;28;19048;-60
2023/07/07 00:49:16;;;;;;;3.75;2.55;;;;;;;17.42;65.80;99709.97;337526;28;4579;-60
2023/07/07 00:49:28;;;;;;;3.60;2.58;;;;;;;17.45;65.86;99712.41;336046;28;17425;-60
2023/07/07 00:49:40;;;;;;;3.13;2.60;;;;;;;17.45;65.53;99709.78;338721;28;4689;-60
2023/07/07 00:49:52;;;;;;;3.35;2.50;;;;;;;17.46;65.92;99711.47;334934;28;18181;-60
2023/07/07 00:50:06;;;;;;;3.75;2.40;;;;;;;17.46;65.79;99711.47;337687;28;4577;-60
2023/07/07 00:50:21;;;;;;;4.22;2.42;;;;;;;17.41;65.92;99716.16;330520;28;18303;-61
2023/07/07 00:50:39;;;;;;;3.72;2.60;;;;;;;17.44;65.62;99710.72;334837;28;17004;-60
2023/07/07 00:50:58;;;;;;;4.28;2.55;;;;;;;17.44;65.38;99708.09;337615;28;18000;-60
2023/07/07 00:51:18;;;;;;;4.22;2.50;;;;;;;17.40;65.83;99709.22;336180;28;17820;-60
2023/07/07 00:51:35;;;;;;;3.90;2.58;;;;;;;17.40;65.77;99711.00;336463;28;17180;-60
2023/07/07 00:52:01;;;;;;;4.13;2.53;;;;;;;17.37;65.65;99709.41;336532;28;17648;-61
2023/07/07 00:52:13;;;;;;;4.65;2.70;;;;;;;17.39;65.52;99715.41;332823;28;17507;-60
2023/07/07 00:52:25;;;;;;;5.65;2.55;;;;;;;17.41;65.32;99710.91;338790;28;4615;-60
2023/07/07 00:52:42;;;;;;;4.55;2.40;;;;;;;17.41;65.30;99713.53;334946;28;18413;-60
2023/07/07 00:52:54;;;;;;;3.92;2.65;;;;;;;17.41;65.04;99710.91;335482;28;18094;-61
2023/07/07 00:53:06;;;;;;;4.53;2.67;;;;;;;17.42;65.33;99709.97;337185;28;4732;-60
2023/07/07 00:53:18;;;;;;;5.20;2.67;;;;;;;17.43;65.28;99705.56;337609;28;4558;-60
2023/07/07 00:53:31;;;;;;;4.07;2.50;;;;;;;17.44;65.31;99708.09;330394;28;17980;-60
2023/07/07 00:53:48;;;;;;;3.17;2.50;;;;;;;17.43;65.36;99716.91;335263;28;9652;-61
2023/07/07 00:54:05;;;;;;;3.22;2.55;;;;;;;17.43;64.94;99714.28;335007;28;17894;-60
2023/07/07 00:54:25;;;;;;;3.40;2.60;;;;;;;17.41;65.15;99713.53;336409;28;17648;-60
2023/07/07 00:54:37;;;;;;;3.80;2.50;;;;;;;17.40;65.17;99714.47;338641;28;18603;-60
2023/07/07 00:54:50;;;;;;;4.47;2.70;;;;;;;17.39;65.07;99715.41;331609;28;18399;-61
2023/07/07 00:55:02;;;;;;;4.63;2.88;;;;;;;17.39;64.77;99714.59;339136;28;5416;-60
2023/07/07 00:55:24;;;;;;;4.55;2.75;;;;;;;17.38;65.17;99716.34;336434;28;18260;-60
2023/07/07 00:55:40;;;;;;;5.05;2.58;;;;;;;17.36;64.72;99716.47;336259;28;17373;-60
2023/07/07 00:55:58;;;;;;;4.97;2.53;;;;;;;17.37;64.72;99712.03;335185;28;17858;-60
2023/07/07 00:56:16;;;;;;;4.15;2.47;;;;;;;17.37;64.77;99717.28;336062;28;17951;-60
2023/07/07 00:56:35;;;;;;;3.78;2.50;;;;;;;17.38;64.56;99716.34;333067;28;18147;-60
2023/07/07 00:56:50;;;;;;;7.32;2.60;;;;;;;17.37;64.72;99722.53;337709;28;17561;-60
2023/07/07 00:57:04;;;;;;;7.82;2.70;;;;;;;17.36;64.90;99720.84;337176;28;18120;-60
2023/07/07 00:57:16;;;;;;;3.85;2.53;;;;;;;17.36;64.90;99718.22;337351;28;17788;-61
2023/07/07 00:57:28;;;;;;;3.40;2.50;;;;;;;17.36;65.05;99716.47;337540;28;5038;-60
2023/07/07 00:57:41;;;;;;;3.63;2.63;;;;;;;17.36;65.19;99711.19;335608;28;18306;-61
2023/07/07 00:57:54;;;;;;;4.55;2.80;;;;;;;17.33;65.14;99715.78;336258;28;18383;-60
2023/07/07 00:58:09;;;;;;;4.47;2.80;;;;;;;17.32;65.48;99724.59;335193;28;17934;-60
2023/07/07 00:58:23;;;;;;;3.85;2.70;;;;;;;17.29;65.76;99724.78;331804;28;17869;-60
2023/07/07 00:58:37;;;;;;;3.45;2.80;;;;;;;17.30;65.51;99721.22;334934;28;17615;-60
2023/07/07 00:58:50;;;;;;;4.03;2.80;;;;;;;17.30;65.08;99722.03;337433;28;11870;-60
2023/07/07 00:59:08;;;;;;;4.47;2.70;;;;;;;17.30;64.63;99721.22;336222;28;19191;-59
2023/07/07 00:59:25;;;;;;;4.97;2.70;;;;;;;17.32;65.01;99721.97;338173;28;18747;-60
2023/07/07 00:59:41;;;;;;;4.60;2.63;;;;;;;17.34;65.14;99722.72;336477;28;17867;-60
2023/07/07 00:59:53;;;;;;;5.25;2.53;;;;;;;17.36;65.07;99716.47;336362;28;18122;-60
2023/07/07 01:00:06;;;;;;;5.25;2.60;;;;;;;17.33;65.03;99721.03;339119;28;4653;-60
2023/07/07 01:00:18;;;;;;;3.20;2.40;;;;;;;17.35;65.30;99724.41;338760;28;18483;-60
2023/07/07 01:00:32;;;;;;;3.45;2.45;;;;;;;17.32;65.59;99725.44;339397;28;4967;-60
2023/07/07 01:00:47;;;;;;;5.10;2.75;;;;;;;17.32;65.38;99722.78;335997;28;19079;-60
2023/07/07 01:01:07;;;;;;;4.53;2.63;;;;;;;17.33;65.39;99716.63;330270;28;17770;-60
2023/07/07 01:01:19;;;;;;;4.35;2.40;;;;;;;17.35;65.11;99724.41;336240;28;17873;-60
2023/07/07 01:01:31;;;;;;;6.07;2.70;;;;;;;17.35;65.05;99724.41;338589;28;4695;-60
2023/07/07 01:01:44;;;;;;;5.65;2.83;;;;;;;17.35;64.81;99719.16;334902;28;19200;-60
2023/07/07 01:02:01;;;;;;;5.20;2.70;;;;;;;17.35;64.67;99719.16;336559;28;12364;-60
2023/07/07 01:02:24;;;;;;;4.80;2.55;;;;;;;17.33;65.06;99715.78;334165;28;17984;-61
2023/07/07 01:02:37;;;;;;;4.50;2.75;;;;;;;17.32;64.95;99720.16;333425;28;16945;-59
2023/07/07 01:02:56;;;;;;;4.00;2.50;;;;;;;17.33;64.98;99721.03;336273;28;18128;-60
2023/07/07 01:03:19;;;;;;;4.60;2.45;;;;;;;17.33;64.96;99710.53;335206;28;17591;-60
2023/07/07 01:03:38;;;;;;;3.88;2.53;;;;;;;17.35;64.88;99713.91;337370;28;17419;-60
2023/07/07 01:03:56;;;;;;;3.28;2.40;;;;;;;17.36;65.22;99710.34;337553;28;17640;-60
2023/07/07 01:04:15;;;;;;;3.15;2.55;;;;;;;17.37;64.82;99717.28;339747;28;17855;-60
2023/07/07 01:04:28;;;;;;;4.30;2.85;;;;;;;17.35;65.06;99716.53;338681;28;17671;-60
2023/07/07 01:04:44;;;;;;;4.70;2.78;;;;;;;17.36;65.12;99715.59;339022;28;17867;-60
2023/07/07 01:05:02;;;;;;;3.45;2.33;;;;;;;17.35;64.70;99719.16;339986;28;18113;-60
2023/07/07 01:05:14;;;;;;;3.35;2.35;;;;;;;17.36;65.06;99712.97;337107;28;16424;-61
2023/07/07 01:05:31;;;;;;;4.47;2.53;;;;;;;17.36;65.50;99718.22;338732;28;5021;-60
2023/07/07 01:05:44;;;;;;;5.50;2.65;;;;;;;17.32;65.33;99714.91;331451;28;17714;-60